createdAt,value
2023-04-05T00:05:07.850Z,100.00
2023-04-05T00:10:35.871Z,100.00
2023-04-05T00:16:08.027Z,100.00
2023-04-05T00:21:35.500Z,100.00
2023-04-05T00:27:01.879Z,100.00
2023-04-05T00:32:32.859Z,100.00
2023-04-05T00:37:57.853Z,100.00
2023-04-05T00:43:26.249Z,100.00
2023-04-05T00:48:56.826Z,100.00
2023-04-05T00:54:23.872Z,100.00
2023-04-05T00:59:48.808Z,100.00
2023-04-05T01:05:22.771Z,100.00
2023-04-05T01:10:58.783Z,100.00
2023-04-05T01:22:23.734Z,100.00
2023-04-05T01:28:10.770Z,100.00
2023-04-05T01:33:46.869Z,100.00
2023-04-05T01:39:14.762Z,100.00
2023-04-05T01:44:39.734Z,100.00
2023-04-05T01:50:08.014Z,100.00
2023-04-05T01:55:40.791Z,100.00
2023-04-05T02:01:06.894Z,100.00
2023-04-05T02:06:33.852Z,100.00
2023-04-05T02:12:08.932Z,100.00
2023-04-05T02:17:40.839Z,100.00
2023-04-05T02:23:08.885Z,100.00
2023-04-05T02:28:35.833Z,100.00
2023-04-05T02:34:04.833Z,100.00
2023-04-05T02:39:35.879Z,100.00
2023-04-05T02:50:33.838Z,100.00
2023-04-05T02:56:12.898Z,100.00
2023-04-05T03:01:43.127Z,100.00
2023-04-05T03:07:17.896Z,100.00
2023-04-05T03:12:45.814Z,100.00
2023-04-05T03:18:14.985Z,100.00
2023-04-05T03:23:43.864Z,100.00
2023-04-05T03:29:23.867Z,100.00
2023-04-05T03:34:53.841Z,100.00
2023-04-05T03:40:19.923Z,100.00
2023-04-05T03:45:47.850Z,100.00
2023-04-05T03:51:14.826Z,100.00
2023-04-05T03:56:48.832Z,100.00
2023-04-05T04:07:39.835Z,100.00
2023-04-05T04:13:12.028Z,100.00
2023-04-05T04:18:42.955Z,100.00
2023-04-05T04:24:33.873Z,100.00
2023-04-05T04:30:19.850Z,100.00
2023-04-05T04:36:01.933Z,100.00
2023-04-05T04:41:44.809Z,100.00
2023-04-05T04:47:30.813Z,100.00
2023-04-05T04:53:08.847Z,100.00
2023-04-05T04:58:33.813Z,100.00
2023-04-05T05:04:00.788Z,100.00
2023-04-05T05:09:30.798Z,100.00
2023-04-05T05:14:55.853Z,100.00
2023-04-05T05:20:21.856Z,100.00
2023-04-05T05:25:48.821Z,100.00
2023-04-05T05:31:14.872Z,100.00
2023-04-05T05:36:38.842Z,100.00
2023-04-05T05:42:08.814Z,100.00
2023-04-05T05:47:32.930Z,100.00
2023-04-05T05:52:59.171Z,100.00
2023-04-05T05:58:28.804Z,100.00
2023-04-05T06:03:53.885Z,100.00
2023-04-05T06:09:11.872Z,100.00
2023-04-05T06:14:38.855Z,100.00
2023-04-05T06:20:03.831Z,100.00
2023-04-05T06:25:27.835Z,100.00
2023-04-05T06:30:55.974Z,100.00
2023-04-05T06:36:21.134Z,100.00
2023-04-05T06:41:51.836Z,100.00
2023-04-05T06:47:22.860Z,100.00
2023-04-05T06:52:48.864Z,100.00
2023-04-05T06:58:13.841Z,100.00
2023-04-05T07:03:41.832Z,100.00
2023-04-05T07:09:06.859Z,100.00
2023-04-05T07:14:30.849Z,100.00
2023-04-05T07:20:04.906Z,100.00
2023-04-05T07:25:29.883Z,100.00
2023-04-05T07:30:53.882Z,100.00
2023-04-05T07:36:21.923Z,100.00
2023-04-05T07:41:45.882Z,100.00
2023-04-05T07:47:10.938Z,100.00
2023-04-05T07:52:38.086Z,100.00
2023-04-05T07:58:02.884Z,100.00
2023-04-05T08:03:27.913Z,100.00
2023-04-05T08:08:55.856Z,100.00
2023-04-05T08:14:19.937Z,100.00
2023-04-05T08:19:51.905Z,100.00
2023-04-05T08:25:19.903Z,100.00
2023-04-05T08:30:45.910Z,100.00
2023-04-05T08:36:14.859Z,100.00
2023-04-05T08:41:49.866Z,100.00
2023-04-05T08:47:14.880Z,100.00
2023-04-05T08:52:39.959Z,100.00
2023-04-05T08:58:11.968Z,100.00
2023-04-05T09:03:39.301Z,100.00
2023-04-05T09:09:05.918Z,100.00
2023-04-05T09:14:32.892Z,100.00
2023-04-05T09:20:03.892Z,100.00
2023-04-05T09:25:45.884Z,80.61
2023-04-05T09:31:12.962Z,100.00
2023-04-05T09:36:39.944Z,100.00
2023-04-05T09:42:21.912Z,80.08
2023-04-05T09:47:50.248Z,70.32
2023-04-05T09:53:25.941Z,75.64
2023-04-05T09:58:50.959Z,64.69
2023-04-05T10:04:17.898Z,66.02
2023-04-05T10:09:42.952Z,63.54
2023-04-05T10:15:06.920Z,66.34
2023-04-05T10:20:44.056Z,65.60
2023-04-05T10:26:17.907Z,64.56
2023-04-05T10:31:51.945Z,67.43
2023-04-05T10:37:26.985Z,64.62
2023-04-05T10:42:59.055Z,65.24
2023-04-05T10:48:31.945Z,68.44
2023-04-05T10:54:00.996Z,67.80
2023-04-05T10:59:26.931Z,67.32
2023-04-05T11:04:53.046Z,66.58
2023-04-05T11:10:26.954Z,58.32
2023-04-05T11:15:52.941Z,64.18
2023-04-05T11:21:18.948Z,59.95
2023-04-05T11:27:07.952Z,61.41
2023-04-05T11:32:33.991Z,57.93
2023-04-05T11:38:23.934Z,59.40
2023-04-05T11:43:52.055Z,61.96
2023-04-05T11:49:17.984Z,63.67
2023-04-05T11:54:43.955Z,62.32
2023-04-05T12:00:11.033Z,58.64
2023-04-05T12:05:36.003Z,59.30
2023-04-05T12:11:00.980Z,62.17
2023-04-05T12:16:29.128Z,59.86
2023-04-05T12:21:52.991Z,57.91
2023-04-05T12:27:19.131Z,59.85
2023-04-05T12:32:52.065Z,55.78
2023-04-05T12:38:16.975Z,53.10
2023-04-05T12:43:41.030Z,58.66
2023-04-05T12:49:09.993Z,51.46
2023-04-05T12:54:39.007Z,53.25
2023-04-05T13:00:10.018Z,54.92
2023-04-05T13:05:39.354Z,53.78
2023-04-05T13:11:05.056Z,54.23
2023-04-05T13:16:30.217Z,53.67
2023-04-05T13:21:58.010Z,51.85
2023-04-05T13:27:22.999Z,47.29
2023-04-05T13:32:48.104Z,51.79
2023-04-05T13:38:16.074Z,49.61
2023-04-05T13:43:40.046Z,49.81
2023-04-05T13:49:05.047Z,47.43
2023-04-05T13:54:32.051Z,47.78
2023-04-05T13:59:57.158Z,47.50
2023-04-05T14:05:29.031Z,49.59
2023-04-05T14:10:57.031Z,44.92
2023-04-05T14:16:35.989Z,48.73
2023-04-05T14:22:02.158Z,46.92
2023-04-05T14:27:29.041Z,47.06
2023-04-05T14:32:56.974Z,43.83
2023-04-05T14:38:23.282Z,46.54
2023-04-05T14:43:48.931Z,44.78
2023-04-05T14:49:16.946Z,47.13
2023-04-05T14:54:42.012Z,44.00
2023-04-05T15:00:07.996Z,46.63
2023-04-05T15:05:35.939Z,44.43
2023-04-05T15:11:02.034Z,43.60
2023-04-05T15:16:33.987Z,43.63
2023-04-05T15:22:01.978Z,41.18
2023-04-05T15:27:20.941Z,43.28
2023-04-05T15:32:46.002Z,44.16
2023-04-05T15:38:13.961Z,42.02
2023-04-05T15:43:37.985Z,48.13
2023-04-05T15:49:03.221Z,42.17
2023-04-05T15:54:30.969Z,48.29
2023-04-05T15:59:56.992Z,47.80
2023-04-05T16:05:23.004Z,48.29
2023-04-05T16:10:51.972Z,46.87
2023-04-05T16:16:30.076Z,47.91
2023-04-05T16:22:01.979Z,47.99
2023-04-05T16:27:29.999Z,46.51
2023-04-05T16:32:55.261Z,46.07
2023-04-05T16:38:20.014Z,46.14
2023-04-05T16:43:47.996Z,44.82
2023-04-05T16:49:13.997Z,46.37
2023-04-05T16:54:39.006Z,48.23
2023-04-05T17:00:06.169Z,49.29
2023-04-05T17:05:31.016Z,49.50
2023-04-05T17:10:55.024Z,48.48
2023-04-05T17:16:29.127Z,49.08
2023-04-05T17:21:56.263Z,48.80
2023-04-05T17:27:21.018Z,51.29
2023-04-05T17:32:49.113Z,49.68
2023-04-05T17:38:15.075Z,53.38
2023-04-05T17:43:40.032Z,52.03
2023-04-05T17:49:08.379Z,53.48
2023-04-05T17:54:33.028Z,54.00
2023-04-05T17:59:59.342Z,55.40
2023-04-05T18:05:27.041Z,55.06
2023-04-05T18:10:52.046Z,56.47
2023-04-05T18:16:23.106Z,56.38
2023-04-05T18:21:51.028Z,59.14
2023-04-05T18:27:16.052Z,63.02
2023-04-05T18:32:41.103Z,62.11
2023-04-05T18:38:08.050Z,64.05
2023-04-05T18:43:33.048Z,64.47
2023-04-05T18:49:01.093Z,66.39
2023-04-05T18:54:29.250Z,66.75
2023-04-05T18:59:53.069Z,70.66
2023-04-05T19:05:20.185Z,73.30
2023-04-05T19:10:49.066Z,77.54
2023-04-05T19:16:24.185Z,78.46
2023-04-05T19:21:50.183Z,81.08
2023-04-05T19:27:18.078Z,82.29
2023-04-05T19:32:43.098Z,82.24
2023-04-05T19:38:09.064Z,85.27
2023-04-05T19:43:53.132Z,100.00
2023-04-05T19:49:33.123Z,100.00
2023-04-05T19:55:01.221Z,100.00
2023-04-05T20:00:43.312Z,100.00
2023-04-05T20:06:21.083Z,100.00
2023-04-05T20:11:49.099Z,98.14
2023-04-05T20:17:44.178Z,100.00
2023-04-05T20:23:09.124Z,99.87
2023-04-05T20:29:00.141Z,96.46
2023-04-05T20:34:31.151Z,98.84
2023-04-05T20:39:57.123Z,99.24
2023-04-05T20:45:51.170Z,95.98
2023-04-05T20:51:18.124Z,100.00
2023-04-05T20:56:43.205Z,100.00
2023-04-05T21:02:10.164Z,100.00
2023-04-05T21:07:36.135Z,99.50
2023-04-05T21:13:01.220Z,100.00
2023-04-05T21:18:29.145Z,100.00
2023-04-05T21:23:54.150Z,100.00
2023-04-05T21:29:21.136Z,100.00
2023-04-05T21:34:50.925Z,100.00
2023-04-05T21:40:18.133Z,100.00
2023-04-05T21:45:44.146Z,100.00
2023-04-05T21:51:12.146Z,100.00
2023-04-05T21:56:36.165Z,100.00
2023-04-05T22:02:01.171Z,100.00
2023-04-05T22:07:28.213Z,100.00
2023-04-05T22:12:53.138Z,100.00
2023-04-05T22:18:18.173Z,100.00
2023-04-05T22:23:46.165Z,100.00
2023-04-05T22:29:11.193Z,100.00
2023-04-05T22:34:36.161Z,100.00
2023-04-05T22:40:03.195Z,100.00
2023-04-05T22:45:28.269Z,100.00
2023-04-05T22:50:53.162Z,100.00
2023-04-05T23:02:15.157Z,100.00
2023-04-05T23:07:55.153Z,100.00
2023-04-05T23:13:20.160Z,100.00
2023-04-05T23:18:45.152Z,100.00
2023-04-05T23:24:17.162Z,100.00
2023-04-05T23:29:41.217Z,100.00
2023-04-05T23:35:06.199Z,100.00
2023-04-05T23:40:33.162Z,100.00
2023-04-05T23:45:58.206Z,100.00
2023-04-05T23:51:23.185Z,100.00
2023-04-05T23:56:51.178Z,100.00
